Time;durP1;ratioP1;P1;durP2;ratioP2;P2;SDS_P1;SDS_P2;PMS_P1;PMS_P2;Temp;Humidity;BMP_temperature;BMP_pressure;BME280_temperature;BME280_humidity;BME280_pressure;Samples;Min_cycle;Max_cycle;Signal;HPM_P1;HPM_P2
2022/09/28 00:00:40;;;;;;;11.07;3.30;;;;;;;-142.57;100.00;68379.81;5012483;28;20025;-74
2022/09/28 00:03:07;;;;;;;6.90;4.03;;;;;;;-142.57;100.00;68379.81;4996661;28;20033;-73
2022/09/28 00:05:33;;;;;;;6.10;3.80;;;;;;;-142.57;100.00;68379.81;5007670;28;20140;-73
2022/09/28 00:07:58;;;;;;;7.60;4.40;;;;;;;-142.57;100.00;68379.81;5015994;28;20028;-73
2022/09/28 00:10:24;;;;;;;6.75;3.65;;;;;;;-142.57;100.00;68379.81;4997846;28;20798;-73
2022/09/28 00:12:50;;;;;;;7.15;4.60;;;;;;;-142.57;100.00;68379.81;5008875;28;20178;-73
2022/09/28 00:15:15;;;;;;;8.38;4.63;;;;;;;-142.57;100.00;68379.81;5010004;28;20029;-74
2022/09/28 00:17:43;;;;;;;11.80;4.72;;;;;;;-142.57;100.00;68379.81;4994447;28;20920;-74
2022/09/28 00:20:09;;;;;;;9.02;4.85;;;;;;;-142.57;100.00;68379.81;5000100;28;20035;-73
2022/09/28 00:22:34;;;;;;;13.75;5.05;;;;;;;-142.57;100.00;68379.81;5026339;28;20032;-73
2022/09/28 00:25:00;;;;;;;11.80;5.60;;;;;;;-142.57;100.00;68379.81;5012372;28;20037;-73
2022/09/28 00:27:25;;;;;;;9.45;6.03;;;;;;;-142.57;100.00;68379.81;4996054;28;20033;-73
2022/09/28 00:29:50;;;;;;;12.30;6.57;;;;;;;-142.57;100.00;68379.81;4999882;28;20033;-73
2022/09/28 00:32:16;;;;;;;9.30;6.65;;;;;;;-142.57;100.00;68379.81;4998886;28;20021;-70
2022/09/28 00:34:44;;;;;;;8.43;6.13;;;;;;;-142.57;100.00;68379.81;5014077;28;20071;-72
2022/09/28 00:37:10;;;;;;;10.23;6.63;;;;;;;-142.57;100.00;68379.81;5011492;28;20066;-70
2022/09/28 00:39:37;;;;;;;10.38;7.57;;;;;;;-142.57;100.00;68379.81;4996428;28;20033;-73
2022/09/28 00:42:04;;;;;;;12.73;7.75;;;;;;;-142.57;100.00;68379.81;5004894;28;20025;-72
2022/09/28 00:44:47;;;;;;;12.88;7.82;;;;;;;-142.57;100.00;68379.81;5012596;28;20039;-73
2022/09/28 00:47:42;;;;;;;12.48;8.40;;;;;;;-142.57;100.00;68379.81;5014824;28;20032;-73
2022/09/28 00:50:20;;;;;;;;;;;;;;;-142.57;100.00;68379.81;5016475;28;20079;-73
2022/09/28 00:52:56;;;;;;;11.55;8.60;;;;;;;-142.57;100.00;68379.81;5045458;28;19913;-73
2022/09/28 00:55:29;;;;;;;10.18;8.18;;;;;;;-142.57;100.00;68379.81;5019258;28;20144;-73
2022/09/28 00:57:57;;;;;;;10.97;6.90;;;;;;;-142.57;100.00;68379.81;5010986;28;20037;-72
2022/09/28 01:00:22;;;;;;;14.38;8.95;;;;;;;-142.57;100.00;68379.81;5011366;28;20029;-74
2022/09/28 01:02:48;;;;;;;11.23;8.88;;;;;;;-142.57;100.00;68379.81;5010774;28;20094;-73
2022/09/28 01:05:13;;;;;;;17.48;8.95;;;;;;;-142.57;100.00;68379.81;5026364;28;20106;-72
2022/09/28 01:07:40;;;;;;;13.73;9.40;;;;;;;-142.57;100.00;68379.81;5014076;28;20132;-73
2022/09/28 01:10:06;;;;;;;14.68;10.57;;;;;;;-142.57;100.00;68379.81;5020786;28;20858;-72
2022/09/28 01:12:31;;;;;;;16.95;10.38;;;;;;;-142.57;100.00;68379.81;5012409;28;20056;-73
2022/09/28 01:14:57;;;;;;;16.95;11.45;;;;;;;-142.57;100.00;68379.81;5014874;28;20029;-72
2022/09/28 01:17:38;;;;;;;16.08;11.38;;;;;;;-142.57;100.00;68379.81;5013433;28;20858;-72
2022/09/28 01:20:04;;;;;;;19.98;12.82;;;;;;;-142.57;100.00;68379.81;5014753;28;20140;-73
2022/09/28 01:22:33;;;;;;;16.95;13.18;;;;;;;-142.57;100.00;68379.81;5011768;28;20040;-72
2022/09/28 01:25:32;;;;;;;15.07;13.30;;;;;;;-142.57;100.00;68379.81;5012046;28;20966;-72
2022/09/28 01:28:03;;;;;;;17.02;13.13;;;;;;;-142.57;100.00;68379.81;5011936;28;20055;-72
2022/09/28 01:30:34;;;;;;;18.67;12.43;;;;;;;-142.57;100.00;68379.81;5012825;28;20130;-72
2022/09/28 01:33:06;;;;;;;14.60;12.10;;;;;;;-142.57;100.00;68379.81;4993597;28;20037;-72
2022/09/28 01:35:38;;;;;;;16.58;12.52;;;;;;;-142.57;100.00;68379.81;5010954;28;20035;-73
2022/09/28 01:38:13;;;;;;;18.27;13.75;;;;;;;-142.57;100.00;68379.81;5009851;28;20228;-72
2022/09/28 01:40:38;;;;;;;;;;;;;;;-142.57;100.00;68379.81;5028478;28;20028;-73
2022/09/28 01:43:14;;;;;;;26.48;13.98;;;;;;;-142.57;100.00;68379.81;5044416;28;19913;-73
2022/09/28 01:45:45;;;;;;;19.85;13.85;;;;;;;-142.57;100.00;68379.81;4999842;28;20028;-73
2022/09/28 01:48:14;;;;;;;19.05;14.65;;;;;;;-142.57;100.00;68379.81;5010859;28;20068;-73
2022/09/28 01:50:41;;;;;;;18.25;15.40;;;;;;;-142.57;100.00;68379.81;5009327;28;20737;-73
2022/09/28 01:53:15;;;;;;;20.35;15.57;;;;;;;-142.57;100.00;68379.81;5015383;28;20032;-73
2022/09/28 01:55:43;;;;;;;19.15;15.77;;;;;;;-142.57;100.00;68379.81;5014458;28;20062;-73
2022/09/28 01:58:08;;;;;;;19.23;16.83;;;;;;;-142.57;100.00;68379.81;5012818;28;20025;-74
2022/09/28 02:00:35;;;;;;;20.02;16.17;;;;;;;-142.57;100.00;68379.81;5011510;28;20140;-74
2022/09/28 02:03:15;;;;;;;20.10;16.17;;;;;;;-142.57;100.00;68379.81;4994056;28;20025;-72
2022/09/28 02:05:45;;;;;;;27.88;16.75;;;;;;;-142.57;100.00;68379.81;5010407;28;20963;-72
2022/09/28 02:08:21;;;;;;;21.45;15.75;;;;;;;-142.57;100.00;68379.81;5006869;28;20026;-73
2022/09/28 02:11:08;;;;;;;24.42;15.80;;;;;;;-142.57;100.00;68379.81;4980472;28;20140;-72
2022/09/28 02:13:39;;;;;;;17.20;15.38;;;;;;;-142.57;100.00;68379.81;5017942;28;20040;-73
2022/09/28 02:16:36;;;;;;;19.83;14.88;;;;;;;-142.57;100.00;68379.81;5026609;28;20036;-73
2022/09/28 02:19:02;;;;;;;18.50;14.10;;;;;;;-142.57;100.00;68379.81;5017974;28;20247;-74
2022/09/28 02:21:49;;;;;;;18.63;14.48;;;;;;;-142.57;100.00;68379.81;5029379;28;20130;-73
2022/09/28 02:24:34;;;;;;;25.80;15.50;;;;;;;-142.57;100.00;68379.81;5016321;28;20036;-72
2022/09/28 02:27:03;;;;;;;16.50;13.45;;;;;;;-142.57;100.00;68379.81;5006344;28;21033;-73
2022/09/28 02:29:28;;;;;;;21.27;14.20;;;;;;;-142.57;100.00;68379.81;5007187;28;20047;-72
2022/09/28 02:31:53;;;;;;;18.17;14.05;;;;;;;-142.57;100.00;68379.81;5029470;28;20752;-72
2022/09/28 02:34:19;;;;;;;18.02;13.25;;;;;;;-142.57;100.00;68379.81;4994210;28;20128;-72
2022/09/28 02:36:45;;;;;;;14.80;12.82;;;;;;;-142.57;100.00;68379.81;5011417;28;20886;-72
2022/09/28 02:39:16;;;;;;;21.45;13.75;;;;;;;-142.57;100.00;68379.81;5010170;28;20071;-72
2022/09/28 02:42:05;;;;;;;14.15;11.90;;;;;;;-142.57;100.00;68379.81;5007709;28;20044;-72
2022/09/28 02:44:47;;;;;;;15.70;10.93;;;;;;;-142.57;100.00;68379.81;5007588;28;20029;-74
2022/09/28 02:47:13;;;;;;;15.95;12.70;;;;;;;-142.57;100.00;68379.81;5007410;28;20051;-74
2022/09/28 02:49:41;;;;;;;17.63;11.48;;;;;;;-142.57;100.00;68379.81;5011128;28;20025;-74
2022/09/28 02:52:17;;;;;;;16.05;10.15;;;;;;;-142.57;100.00;68379.81;5012332;28;20870;-74
2022/09/28 02:55:18;;;;;;;12.10;9.85;;;;;;;-142.57;100.00;68379.81;5004937;28;20037;-74
2022/09/28 02:58:11;;;;;;;14.43;9.85;;;;;;;-142.57;100.00;68379.81;5025911;28;20139;-73
2022/09/28 03:01:02;;;;;;;13.98;10.35;;;;;;;-142.57;100.00;68379.81;5014949;28;20135;-72
2022/09/28 03:03:47;;;;;;;11.70;9.18;;;;;;;-142.57;100.00;68379.81;5011755;28;20091;-72
2022/09/28 03:06:21;;;;;;;13.10;9.50;;;;;;;-142.57;100.00;68379.81;5011556;28;20029;-72
2022/09/28 03:08:53;;;;;;;17.88;11.15;;;;;;;-142.57;100.00;68379.81;5011500;28;20032;-72
2022/09/28 03:11:26;;;;;;;13.93;9.50;;;;;;;-142.57;100.00;68379.81;5005188;28;20074;-72
2022/09/28 03:13:52;;;;;;;12.10;9.75;;;;;;;-142.57;100.00;68379.81;5010940;28;20037;-73
2022/09/28 03:16:18;;;;;;;13.23;9.88;;;;;;;-142.57;100.00;68379.81;5008414;28;20948;-73
2022/09/28 03:18:44;;;;;;;15.75;10.02;;;;;;;-142.57;100.00;68379.81;4984260;28;20033;-72
2022/09/28 03:21:13;;;;;;;11.50;8.80;;;;;;;-142.57;100.00;68379.81;5012069;28;20838;-72
2022/09/28 03:23:40;;;;;;;11.82;8.93;;;;;;;-142.57;100.00;68379.81;5011422;28;20144;-72
2022/09/28 03:26:12;;;;;;;12.65;8.70;;;;;;;-142.57;100.00;68379.81;5002301;28;20125;-72
2022/09/28 03:28:38;;;;;;;12.77;8.65;;;;;;;-142.57;100.00;68379.81;5024911;28;20916;-72
2022/09/28 03:31:03;;;;;;;12.13;9.88;;;;;;;-142.57;100.00;68379.81;5011035;28;20021;-72
2022/09/28 03:33:28;;;;;;;12.30;9.45;;;;;;;-142.57;100.00;68379.81;5025379;28;20044;-73
2022/09/28 03:35:54;;;;;;;16.25;9.82;;;;;;;-142.57;100.00;68379.81;5022535;28;20079;-72
2022/09/28 03:38:20;;;;;;;12.02;8.65;;;;;;;-142.57;100.00;68379.81;5011019;28;20037;-72
2022/09/28 03:40:52;;;;;;;12.02;9.13;;;;;;;-142.57;100.00;68379.81;4990805;28;20784;-72
2022/09/28 03:43:18;;;;;;;14.07;7.88;;;;;;;-142.57;100.00;68379.81;5004346;28;20103;-72
2022/09/28 03:45:50;;;;;;;11.13;8.55;;;;;;;-142.57;100.00;68379.81;5010159;28;20028;-74
2022/09/28 03:48:16;;;;;;;12.13;9.40;;;;;;;-142.57;100.00;68379.81;5011981;28;20028;-73
2022/09/28 03:50:41;;;;;;;11.32;8.93;;;;;;;-142.57;100.00;68379.81;4986202;28;20041;-74
2022/09/28 03:53:06;;;;;;;14.77;8.63;;;;;;;-142.57;100.00;68379.81;4995005;28;20037;-74
2022/09/28 03:55:32;;;;;;;10.73;8.50;;;;;;;-142.57;100.00;68379.81;5015757;28;20383;-74
2022/09/28 03:57:57;;;;;;;14.38;9.45;;;;;;;-142.57;100.00;68379.81;4995628;28;20871;-74
2022/09/28 04:00:23;;;;;;;13.18;9.38;;;;;;;-142.57;100.00;68379.81;4992710;28;20029;-73
2022/09/28 04:02:48;;;;;;;13.52;8.65;;;;;;;-142.57;100.00;68379.81;5011888;28;20029;-74
2022/09/28 04:05:13;;;;;;;13.07;8.73;;;;;;;-142.57;100.00;68379.81;5014931;28;20043;-73
2022/09/28 04:07:39;;;;;;;10.68;8.30;;;;;;;-142.57;100.00;68379.81;5022823;28;20028;-72
2022/09/28 04:10:05;;;;;;;15.73;8.93;;;;;;;-142.57;100.00;68379.81;5022100;28;20134;-74
2022/09/28 04:12:30;;;;;;;11.98;8.10;;;;;;;-142.57;100.00;68379.81;5009903;28;20956;-73
2022/09/28 04:14:56;;;;;;;12.73;7.85;;;;;;;-142.57;100.00;68379.81;5005742;28;20025;-72
2022/09/28 04:17:21;;;;;;;10.43;7.80;;;;;;;-142.57;100.00;68379.81;4997501;28;20092;-73
2022/09/28 04:19:46;;;;;;;11.32;8.32;;;;;;;-142.57;100.00;68379.81;4994416;28;20033;-74
2022/09/28 04:22:13;;;;;;;12.32;7.50;;;;;;;-142.57;100.00;68379.81;5026136;28;20025;-71
2022/09/28 04:24:39;;;;;;;12.57;7.30;;;;;;;-142.57;100.00;68379.81;4999913;28;20604;-72
2022/09/28 04:29:48;;;;;;;16.27;7.43;;;;;;;-142.57;100.00;68379.81;5012754;28;20079;-71
2022/09/28 04:32:13;;;;;;;12.13;7.70;;;;;;;-142.57;100.00;68379.81;4999958;28;20069;-71
2022/09/28 04:34:39;;;;;;;17.17;7.57;;;;;;;-142.57;100.00;68379.81;5003245;28;20128;-73
2022/09/28 04:37:04;;;;;;;11.18;7.45;;;;;;;-142.57;100.00;68379.81;5012897;28;20239;-72
2022/09/28 04:39:29;;;;;;;11.18;7.38;;;;;;;-142.57;100.00;68379.81;4993046;28;20501;-73
2022/09/28 04:41:55;;;;;;;9.90;7.57;;;;;;;-142.57;100.00;68379.81;4996473;28;20024;-72
2022/09/28 04:44:20;;;;;;;11.23;7.88;;;;;;;-142.57;100.00;68379.81;5012326;28;20879;-73
2022/09/28 04:46:45;;;;;;;10.95;8.63;;;;;;;-142.57;100.00;68379.81;5021388;28;20034;-73
2022/09/28 04:49:11;;;;;;;15.00;8.45;;;;;;;-142.57;100.00;68379.81;5020858;28;20029;-73
2022/09/28 04:51:36;;;;;;;13.77;10.05;;;;;;;-142.57;100.00;68379.81;5018096;28;20028;-72
2022/09/28 04:54:02;;;;;;;19.85;10.43;;;;;;;-142.57;100.00;68379.81;5019717;28;20029;-72
2022/09/28 04:56:27;;;;;;;13.70;8.68;;;;;;;-142.57;100.00;68379.81;5017843;28;20029;-72
2022/09/28 04:58:53;;;;;;;16.45;10.65;;;;;;;-142.57;100.00;68379.81;5014771;28;20040;-72
2022/09/28 05:01:22;;;;;;;14.68;11.18;;;;;;;-142.57;100.00;68379.81;5028345;28;20033;-72
2022/09/28 05:03:47;;;;;;;19.20;10.63;;;;;;;-142.57;100.00;68379.81;5012562;28;20025;-72
2022/09/28 05:06:14;;;;;;;15.90;11.68;;;;;;;-142.57;100.00;68379.81;5012266;28;20025;-72
2022/09/28 05:08:40;;;;;;;15.60;12.45;;;;;;;-142.57;100.00;68379.81;5013156;28;20128;-72
2022/09/28 05:11:07;;;;;;;17.13;12.70;;;;;;;-142.57;100.00;68379.81;5013328;28;20023;-72
2022/09/28 05:13:39;;;;;;;16.75;12.18;;;;;;;-142.57;100.00;68379.81;5047054;28;20048;-73
2022/09/28 05:16:05;;;;;;;18.02;13.73;;;;;;;-142.57;100.00;68379.81;5020511;28;20029;-74
2022/09/28 05:18:30;;;;;;;18.17;13.65;;;;;;;-142.57;100.00;68379.81;5013274;28;20035;-73
2022/09/28 05:20:55;;;;;;;19.52;13.40;;;;;;;-142.57;100.00;68379.81;5029879;28;20129;-74
2022/09/28 05:23:21;;;;;;;15.95;13.63;;;;;;;-142.57;100.00;68379.81;4994836;28;20037;-71
2022/09/28 05:25:46;;;;;;;17.48;14.00;;;;;;;-142.57;100.00;68379.81;5020478;28;20057;-75
2022/09/28 05:28:12;;;;;;;18.90;14.35;;;;;;;-142.57;100.00;68379.81;5025777;28;20809;-75
2022/09/28 05:30:37;;;;;;;22.65;12.95;;;;;;;-142.57;100.00;68379.81;5011926;28;20110;-75
2022/09/28 05:33:03;;;;;;;19.67;13.68;;;;;;;-142.57;100.00;68379.81;5012904;28;20821;-75
2022/09/28 05:35:29;;;;;;;20.27;14.48;;;;;;;-142.57;100.00;68379.81;4996478;28;20064;-75
2022/09/28 05:37:56;;;;;;;17.13;14.23;;;;;;;-142.57;100.00;68379.81;5028072;28;20020;-75
2022/09/28 05:40:21;;;;;;;31.90;15.48;;;;;;;-142.57;100.00;68379.81;5011253;28;20933;-75
2022/09/28 05:42:47;;;;;;;16.58;14.27;;;;;;;-142.57;100.00;68379.81;4996655;28;20029;-74
2022/09/28 05:45:12;;;;;;;18.02;14.90;;;;;;;-142.57;100.00;68379.81;5042066;28;20032;-71
2022/09/28 05:47:39;;;;;;;16.55;14.77;;;;;;;-142.57;100.00;68379.81;5008313;28;20025;-70
2022/09/28 05:50:06;;;;;;;23.88;15.23;;;;;;;-142.57;100.00;68379.81;4999136;28;20274;-72
2022/09/28 05:52:31;;;;;;;20.67;16.33;;;;;;;-142.57;100.00;68379.81;5012545;28;20017;-73
2022/09/28 05:54:57;;;;;;;18.95;15.88;;;;;;;-142.57;100.00;68379.81;4994087;28;20976;-74
2022/09/28 05:57:23;;;;;;;19.70;15.70;;;;;;;-142.57;100.00;68379.81;4995304;28;20875;-74
2022/09/28 05:59:48;;;;;;;28.13;18.70;;;;;;;-142.57;100.00;68379.81;4997768;28;20028;-75
2022/09/28 06:02:14;;;;;;;21.83;17.83;;;;;;;-142.57;100.00;68379.81;5011522;28;20021;-75
2022/09/28 06:04:39;;;;;;;21.98;18.13;;;;;;;-142.57;100.00;68379.81;5019089;28;20063;-75
2022/09/28 06:07:04;;;;;;;19.25;17.05;;;;;;;-142.57;100.00;68379.81;5015887;28;20029;-75
2022/09/28 06:09:30;;;;;;;21.90;17.52;;;;;;;-142.57;100.00;68379.81;5010647;28;20928;-74
2022/09/28 06:11:58;;;;;;;20.20;17.08;;;;;;;-142.57;100.00;68379.81;4999369;28;20087;-75
2022/09/28 06:14:24;;;;;;;21.10;17.17;;;;;;;-142.57;100.00;68379.81;5010788;28;20055;-71
2022/09/28 06:16:50;;;;;;;20.80;17.50;;;;;;;-142.57;100.00;68379.81;5013024;28;20416;-72
2022/09/28 06:19:15;;;;;;;22.42;18.52;;;;;;;-142.57;100.00;68379.81;5014978;28;20033;-75
2022/09/28 06:21:41;;;;;;;20.80;17.35;;;;;;;-142.57;100.00;68379.81;5014762;28;20132;-75
2022/09/28 06:24:06;;;;;;;20.38;16.75;;;;;;;-142.57;100.00;68379.81;4995497;28;20060;-75
2022/09/28 06:26:32;;;;;;;24.13;18.05;;;;;;;-142.57;100.00;68379.81;5013740;28;20810;-75
2022/09/28 06:28:59;;;;;;;25.23;18.13;;;;;;;-142.57;100.00;68379.81;5047970;28;20076;-74
2022/09/28 06:31:26;;;;;;;27.90;18.92;;;;;;;-142.57;100.00;68379.81;5009989;28;20017;-75
2022/09/28 06:33:51;;;;;;;21.40;16.90;;;;;;;-142.57;100.00;68379.81;5005343;28;20963;-74
2022/09/28 06:36:18;;;;;;;27.70;17.88;;;;;;;-142.57;100.00;68379.81;5014395;28;20037;-75
2022/09/28 06:38:44;;;;;;;26.17;19.38;;;;;;;-142.57;100.00;68379.81;5045838;28;20038;-74
2022/09/28 06:41:10;;;;;;;27.95;17.63;;;;;;;-142.57;100.00;68379.81;4993675;28;20033;-75
2022/09/28 06:43:38;;;;;;;21.95;17.60;;;;;;;-142.57;100.00;68379.81;5007188;28;20930;-74
2022/09/28 06:46:04;;;;;;;23.67;17.52;;;;;;;-142.57;100.00;68379.81;5014607;28;20025;-73
2022/09/28 06:48:32;;;;;;;25.13;17.70;;;;;;;-142.57;100.00;68379.81;5010421;28;20039;-74
2022/09/28 06:50:58;;;;;;;23.08;17.88;;;;;;;-142.57;100.00;68379.81;4995273;28;20035;-74
2022/09/28 06:53:23;;;;;;;22.98;17.38;;;;;;;-142.57;100.00;68379.81;4995578;28;20033;-76
2022/09/28 06:55:49;;;;;;;21.67;18.02;;;;;;;-142.57;100.00;68379.81;5010680;28;20147;-74
2022/09/28 06:58:16;;;;;;;24.63;17.45;;;;;;;-142.57;100.00;68379.81;5011030;28;20037;-76
2022/09/28 07:00:42;;;;;;;24.85;18.20;;;;;;;-142.57;100.00;68379.81;5012329;28;20029;-75
2022/09/28 07:03:20;;;;;;;19.38;15.90;;;;;;;-142.57;100.00;68379.81;5007729;28;20033;-76
2022/09/28 07:05:48;;;;;;;19.90;17.02;;;;;;;-142.57;100.00;68379.81;4984554;28;20025;-74
2022/09/28 07:08:14;;;;;;;18.85;15.40;;;;;;;-142.57;100.00;68379.81;5010873;28;20120;-73
2022/09/28 07:10:45;;;;;;;20.17;15.13;;;;;;;-142.57;100.00;68379.81;4999796;28;20917;-73
2022/09/28 07:13:12;;;;;;;20.67;15.48;;;;;;;-142.57;100.00;68379.81;5020926;28;20029;-74
2022/09/28 07:15:37;;;;;;;18.17;14.60;;;;;;;-142.57;100.00;68379.81;4993358;28;20086;-74
2022/09/28 07:18:04;;;;;;;18.25;15.18;;;;;;;-142.57;100.00;68379.81;4998066;28;20025;-73
2022/09/28 07:20:34;;;;;;;21.25;16.55;;;;;;;-142.57;100.00;68379.81;5026592;28;20742;-72
2022/09/28 07:23:01;;;;;;;17.27;14.50;;;;;;;-142.57;100.00;68379.81;5007865;28;20029;-73
2022/09/28 07:25:31;;;;;;;18.35;13.35;;;;;;;-142.57;100.00;68379.81;5013653;28;20075;-73
2022/09/28 07:27:58;;;;;;;19.48;13.80;;;;;;;-142.57;100.00;68379.81;4997486;28;20032;-73
2022/09/28 07:30:32;;;;;;;15.98;12.82;;;;;;;-142.57;100.00;68379.81;5007897;28;20036;-73
2022/09/28 07:33:01;;;;;;;20.13;13.87;;;;;;;-142.57;100.00;68379.81;4998551;28;20120;-73
2022/09/28 07:35:27;;;;;;;18.33;14.57;;;;;;;-142.57;100.00;68379.81;5013341;28;20287;-73
2022/09/28 07:38:04;;;;;;;15.18;13.57;;;;;;;-142.57;100.00;68379.81;5015723;28;20045;-73
2022/09/28 07:43:15;;;;;;;17.35;12.05;;;;;;;-142.57;100.00;68379.81;5010557;28;20131;-73
2022/09/28 07:45:42;;;;;;;15.70;12.00;;;;;;;-142.57;100.00;68379.81;5001198;28;20040;-74
2022/09/28 07:48:08;;;;;;;15.32;10.93;;;;;;;-142.57;100.00;68379.81;5026932;28;20024;-74
2022/09/28 07:50:36;;;;;;;14.18;10.23;;;;;;;-142.57;100.00;68379.81;4999532;28;20060;-74
2022/09/28 07:53:02;;;;;;;19.13;10.27;;;;;;;-142.57;100.00;68379.81;5028131;28;20029;-73
2022/09/28 07:55:28;;;;;;;12.00;8.98;;;;;;;-142.57;100.00;68379.81;5017485;28;20027;-73
2022/09/28 07:57:55;;;;;;;12.43;8.93;;;;;;;-142.57;100.00;68379.81;5013563;28;20025;-74
2022/09/28 08:00:21;;;;;;;10.55;8.32;;;;;;;-142.57;100.00;68379.81;5012798;28;20029;-72
2022/09/28 08:02:47;;;;;;;10.35;7.93;;;;;;;-142.57;100.00;68379.81;5012480;28;20028;-72
2022/09/28 08:05:12;;;;;;;12.30;6.50;;;;;;;-142.57;100.00;68379.81;5015641;28;20036;-72
2022/09/28 08:07:38;;;;;;;7.97;4.95;;;;;;;-142.57;100.00;68379.81;5017770;28;20041;-73
2022/09/28 08:10:04;;;;;;;10.50;6.00;;;;;;;-142.57;100.00;68379.81;5015212;28;20025;-74
2022/09/28 08:12:30;;;;;;;8.88;5.45;;;;;;;-142.57;100.00;68379.81;4994757;28;20939;-72
2022/09/28 08:14:55;;;;;;;8.85;5.32;;;;;;;-142.57;100.00;68379.81;4994818;28;20033;-73
2022/09/28 08:17:20;;;;;;;6.03;4.22;;;;;;;-142.57;100.00;68379.81;5015983;28;20076;-74
2022/09/28 08:22:31;;;;;;;8.52;3.53;;;;;;;-142.57;100.00;68379.81;5006438;28;20079;-72
2022/09/28 08:24:56;;;;;;;6.68;3.92;;;;;;;-142.57;100.00;68379.81;5028872;28;20021;-72
2022/09/28 08:27:22;;;;;;;7.32;3.33;;;;;;;-142.57;100.00;68379.81;4998251;28;20064;-72
2022/09/28 08:29:47;;;;;;;7.53;2.85;;;;;;;-142.57;100.00;68379.81;5046667;28;20052;-74
2022/09/28 08:32:13;;;;;;;10.63;3.50;;;;;;;-142.57;100.00;68379.81;5000904;28;20021;-75
2022/09/28 08:34:40;;;;;;;5.25;2.53;;;;;;;-142.57;100.00;68379.81;4999691;28;20952;-75
2022/09/28 08:37:07;;;;;;;8.00;2.95;;;;;;;-142.57;100.00;68379.81;5016861;28;20049;-75
2022/09/28 08:39:35;;;;;;;8.27;2.95;;;;;;;-142.57;100.00;68379.81;5013864;28;20965;-75
2022/09/28 08:42:28;;;;;;;5.68;2.38;;;;;;;-142.57;100.00;68379.81;5015400;28;20028;-73
2022/09/28 08:44:57;;;;;;;5.03;2.22;;;;;;;-142.57;100.00;68379.81;5012284;28;20028;-73
2022/09/28 08:50:31;;;;;;;4.25;2.10;;;;;;;-142.57;100.00;68379.81;5019575;28;20036;-73
2022/09/28 08:53:03;;;;;;;7.32;2.08;;;;;;;-142.57;100.00;68379.81;5013478;28;20086;-74
2022/09/28 08:55:36;;;;;;;7.97;2.08;;;;;;;-142.57;100.00;68379.81;5013387;28;20033;-74
2022/09/28 08:58:23;;;;;;;5.40;2.28;;;;;;;-142.57;100.00;68379.81;5013036;28;20132;-73
2022/09/28 09:00:50;;;;;;;5.70;2.38;;;;;;;-142.57;100.00;68379.81;5003482;28;20130;-72
2022/09/28 09:03:19;;;;;;;4.55;2.08;;;;;;;-142.57;100.00;68379.81;5014866;28;20128;-74
2022/09/28 09:06:13;;;;;;;7.47;2.45;;;;;;;-142.57;100.00;68379.81;5001626;28;20029;-72
2022/09/28 09:08:56;;;;;;;6.00;2.08;;;;;;;-142.57;100.00;68379.81;5015165;28;20071;-71
2022/09/28 09:11:48;;;;;;;9.25;2.30;;;;;;;-142.57;100.00;68379.81;5015800;28;20059;-71
2022/09/28 09:14:32;;;;;;;6.88;2.20;;;;;;;-142.57;100.00;68379.81;5006617;28;20045;-71
2022/09/28 09:17:20;;;;;;;8.48;2.70;;;;;;;-142.57;100.00;68379.81;5020366;28;20036;-70
2022/09/28 09:19:54;;;;;;;6.63;1.83;;;;;;;-142.57;100.00;68379.81;5014711;28;20040;-73
2022/09/28 09:22:39;;;;;;;6.22;2.22;;;;;;;-142.57;100.00;68379.81;5015326;28;20028;-73
2022/09/28 09:25:26;;;;;;;15.43;2.28;;;;;;;-142.57;100.00;68379.81;5005252;28;20029;-73
2022/09/28 09:28:02;;;;;;;5.13;1.92;;;;;;;-142.57;100.00;68379.81;5015172;28;20087;-73
2022/09/28 09:30:35;;;;;;;6.45;2.20;;;;;;;-142.57;100.00;68379.81;5014417;28;20029;-72
2022/09/28 09:33:23;;;;;;;8.23;1.85;;;;;;;-142.57;100.00;68379.81;5034114;28;20030;-74
2022/09/28 09:35:55;;;;;;;5.35;2.10;;;;;;;-142.57;100.00;68379.81;5019287;28;20568;-73
2022/09/28 09:38:40;;;;;;;4.63;1.45;;;;;;;-142.57;100.00;68379.81;5016528;28;20137;-73
2022/09/28 09:41:29;;;;;;;7.68;2.28;;;;;;;-142.57;100.00;68379.81;4990796;28;20029;-72
2022/09/28 09:44:26;;;;;;;7.00;1.67;;;;;;;-142.57;100.00;68379.81;5013838;28;20037;-72
2022/09/28 09:46:56;;;;;;;2.97;1.52;;;;;;;-142.57;100.00;68379.81;5003355;28;20040;-73
2022/09/28 09:49:23;;;;;;;2.92;1.52;;;;;;;-142.57;100.00;68379.81;5047023;28;20027;-72
2022/09/28 09:52:00;;;;;;;3.80;1.40;;;;;;;-142.57;100.00;68379.81;5017731;28;20751;-72
2022/09/28 09:54:38;;;;;;;6.57;1.67;;;;;;;-142.57;100.00;68379.81;5004750;28;20861;-72
2022/09/28 09:57:16;;;;;;;2.95;1.33;;;;;;;-142.57;100.00;68379.81;4982963;28;20087;-72
2022/09/28 09:59:43;;;;;;;3.78;1.35;;;;;;;-142.57;100.00;68379.81;5009961;28;20035;-75
2022/09/28 10:02:41;;;;;;;5.32;1.63;;;;;;;-142.57;100.00;68379.81;4995628;28;20033;-72
2022/09/28 10:05:10;;;;;;;1.90;0.90;;;;;;;-142.57;100.00;68379.81;5011646;28;20041;-75
2022/09/28 10:07:44;;;;;;;4.70;1.13;;;;;;;-142.57;100.00;68379.81;5017239;28;20067;-72
2022/09/28 10:10:15;;;;;;;5.57;1.05;;;;;;;-142.57;100.00;68379.81;5009268;28;20192;-72
2022/09/28 10:12:40;;;;;;;2.90;1.10;;;;;;;-142.57;100.00;68379.81;5011877;28;20021;-72
2022/09/28 10:15:06;;;;;;;3.72;0.82;;;;;;;-142.57;100.00;68379.81;5011543;28;20939;-71
2022/09/28 10:17:33;;;;;;;6.13;1.40;;;;;;;-142.57;100.00;68379.81;5014979;28;20035;-71
2022/09/28 10:19:58;;;;;;;2.65;0.90;;;;;;;-142.57;100.00;68379.81;5015097;28;20037;-67
2022/09/28 10:22:25;;;;;;;5.53;1.13;;;;;;;-142.57;100.00;68379.81;5014403;28;20024;-72
2022/09/28 10:24:55;;;;;;;2.75;1.08;;;;;;;-142.57;100.00;68379.81;5009219;28;20029;-72
2022/09/28 10:27:27;;;;;;;5.68;1.70;;;;;;;-142.57;100.00;68379.81;5011030;28;20029;-73
2022/09/28 10:30:23;;;;;;;2.13;0.68;;;;;;;-142.57;100.00;68379.81;5021839;28;20090;-71
2022/09/28 10:32:51;;;;;;;3.45;1.00;;;;;;;-142.57;100.00;68379.81;5036075;28;20297;-73
2022/09/28 10:35:25;;;;;;;3.05;1.02;;;;;;;-142.57;100.00;68379.81;5070307;28;20100;-72
2022/09/28 10:37:58;;;;;;;3.75;0.77;;;;;;;-142.57;100.00;68379.81;5068767;28;20033;-73
2022/09/28 10:40:43;;;;;;;3.88;1.10;;;;;;;-142.57;100.00;68379.81;5069293;28;20050;-71
2022/09/28 10:43:34;;;;;;;3.15;1.02;;;;;;;-142.57;100.00;68379.81;5044060;28;20039;-71
2022/09/28 10:46:11;;;;;;;1.88;0.80;;;;;;;-142.57;100.00;68379.81;5032959;28;20029;-72
2022/09/28 10:48:58;;;;;;;3.10;1.00;;;;;;;-142.57;100.00;68379.81;5048377;28;20032;-72
2022/09/28 10:51:42;;;;;;;4.47;1.20;;;;;;;-142.57;100.00;68379.81;5052556;28;20021;-72
2022/09/28 10:54:14;;;;;;;1.58;0.70;;;;;;;-142.57;100.00;68379.81;5051557;28;20494;-72
2022/09/28 10:56:40;;;;;;;2.42;1.02;;;;;;;-142.57;100.00;68379.81;5050629;28;20037;-72
2022/09/28 10:59:36;;;;;;;4.50;1.00;;;;;;;-142.57;100.00;68379.81;5048166;28;20089;-72
2022/09/28 11:02:49;;;;;;;3.13;0.98;;;;;;;-142.57;100.00;68379.81;5036300;28;20084;-72
2022/09/28 11:05:21;;;;;;;2.63;0.98;;;;;;;-142.57;100.00;68379.81;5032827;28;20032;-71
2022/09/28 11:07:46;;;;;;;2.83;1.08;;;;;;;-142.57;100.00;68379.81;5032692;28;20475;-73
2022/09/28 11:10:21;;;;;;;2.28;0.90;;;;;;;-142.57;100.00;68379.81;5034867;28;20100;-72
2022/09/28 11:12:46;;;;;;;3.65;1.30;;;;;;;-142.57;100.00;68379.81;5049169;28;20059;-72
2022/09/28 11:15:20;;;;;;;2.05;0.80;;;;;;;-142.57;100.00;68379.81;5050815;28;20033;-72
2022/09/28 11:17:45;;;;;;;8.95;1.52;;;;;;;-142.57;100.00;68379.81;5052526;28;20029;-72
2022/09/28 11:20:23;;;;;;;3.17;1.15;;;;;;;-142.57;100.00;68379.81;5050344;28;20021;-72
2022/09/28 11:22:53;;;;;;;4.75;1.45;;;;;;;-142.57;100.00;68379.81;5052185;28;20115;-72
2022/09/28 11:25:24;;;;;;;2.58;0.70;;;;;;;-142.57;100.00;68379.81;5051422;28;20025;-72
2022/09/28 11:27:49;;;;;;;2.10;0.82;;;;;;;-142.57;100.00;68379.81;5050732;28;20032;-72